Time;durP1;ratioP1;P1;durP2;ratioP2;P2;SDS_P1;SDS_P2;PMS_P1;PMS_P2;Temp;Humidity;BMP_temperature;BMP_pressure;BME280_temperature;BME280_humidity;BME280_pressure;Samples;Min_cycle;Max_cycle;Signal;HPM_P1;HPM_P2
2023/07/16 00:02:15;;;;;;;;;;;;;;;13.50;100.00;98979.97;5043861;28;19974;-81
2023/07/16 00:04:42;;;;;;;;;;;;;;;13.46;100.00;98984.28;5052389;28;19931;-80
2023/07/16 00:07:10;;;;;;;;;;;;;;;13.43;100.00;98977.50;5053209;28;19951;-80
2023/07/16 00:09:37;;;;;;;;;;;;;;;13.43;100.00;98988.34;5051453;28;20287;-80
2023/07/16 00:12:04;;;;;;;;;;;;;;;13.41;100.00;98980.47;5034998;28;19925;-79
2023/07/16 00:14:31;;;;;;;;;;;;;;;13.37;100.00;98983.97;5033020;28;19924;-80
2023/07/16 00:16:58;;;;;;;;;;;;;;;13.33;100.00;98978.25;5032019;28;19971;-80
2023/07/16 00:19:25;;;;;;;;;;;;;;;13.33;100.00;98989.09;5043295;28;19951;-79
2023/07/16 00:21:52;;;;;;;;;;;;;;;13.33;100.00;98988.28;5035282;28;19956;-80
2023/07/16 00:24:18;;;;;;;;;;;;;;;13.29;100.00;98985.28;5037297;28;19932;-79
2023/07/16 00:26:45;;;;;;;;;;;;;;;13.28;100.00;98985.56;5052677;28;19924;-79
2023/07/16 00:29:12;;;;;;;;;;;;;;;13.25;100.00;98978.72;5052869;28;20402;-79
2023/07/16 00:31:39;;;;;;;;;;;;;;;13.21;100.00;98991.16;5051530;28;19932;-80
2023/07/16 00:34:06;;;;;;;;;;;;;;;13.17;100.00;98998.19;5053300;28;20423;-79
2023/07/16 00:36:32;;;;;;;;;;;;;;;13.13;100.00;98989.75;5020199;28;19925;-80
2023/07/16 00:38:59;;;;;;;;;;;;;;;13.12;100.00;98990.03;5033981;28;19939;-80
2023/07/16 00:41:26;;;;;;;;;;;;;;;13.09;100.00;98994.09;5015001;28;20046;-78
2023/07/16 00:43:54;;;;;;;;;;;;;;;13.05;100.00;98998.38;5031586;28;19928;-81
2023/07/16 00:46:21;;;;;;;;;;;;;;;13.05;100.00;99000.28;5037428;28;19931;-80
2023/07/16 00:48:48;;;;;;;;;;;;;;;13.08;100.00;98997.03;5029542;28;19931;-80
2023/07/16 00:51:15;;;;;;;;;;;;;;;13.06;100.00;98993.78;5041187;28;19932;-80
2023/07/16 00:53:42;;;;;;;;;;;;;;;13.10;100.00;98992.19;5040937;28;20303;-81
2023/07/16 00:56:10;;;;;;;;;;;;;;;13.12;100.00;98995.47;5043954;28;19925;-80
2023/07/16 00:58:36;;;;;;;;;;;;;;;13.07;100.00;98996.22;5042837;28;20315;-81
2023/07/16 01:01:03;;;;;;;;;;;;;;;13.09;100.00;98987.81;5043912;28;19975;-79
2023/07/16 01:03:30;;;;;;;;;;;;;;;13.11;100.00;98991.91;5049160;28;19924;-80
2023/07/16 01:06:00;;;;;;;;;;;;;;;13.15;100.00;99000.34;5042192;28;20461;-78
2023/07/16 01:08:30;;;;;;;;;;;;;;;13.19;100.00;99005.00;5041107;28;20019;-79
2023/07/16 01:10:57;;;;;;;;;;;;;;;13.27;100.00;99008.28;5040552;28;19940;-80
2023/07/16 01:13:24;;;;;;;;;;;;;;;13.31;100.00;99015.66;5043301;28;20062;-79
2023/07/16 01:15:52;;;;;;;;;;;;;;;13.32;100.00;99013.75;5039253;28;19925;-79
2023/07/16 01:18:19;;;;;;;;;;;;;;;13.33;100.00;99016.19;5051245;28;19979;-80
2023/07/16 01:20:45;;;;;;;;;;;;;;;13.34;100.00;99017.00;5051204;28;19928;-80
2023/07/16 01:23:18;;;;;;;;;;;;;;;13.34;100.00;99017.84;5051255;28;19925;-81
2023/07/16 01:25:45;;;;;;;;;;;;;;;13.34;100.00;99022.44;5052257;28;19925;-81
2023/07/16 01:28:15;;;;;;;;;;;;;;;13.32;100.00;99022.72;5052684;28;19948;-81
2023/07/16 01:30:42;;;;;;;;;;;;;;;13.31;100.00;99022.97;5031358;28;19932;-80
2023/07/16 01:33:12;;;;;;;;;;;;;;;13.27;100.00;99022.69;5031461;28;19932;-79
2023/07/16 01:35:39;;;;;;;;;;;;;;;13.24;100.00;99020.44;5031137;28;19924;-80
2023/07/16 01:38:06;;;;;;;;;;;;;;;13.20;100.00;99022.88;5031200;28;20105;-79
2023/07/16 01:40:33;;;;;;;;;;;;;;;13.12;100.00;99014.44;5030973;28;19931;-80
2023/07/16 01:43:00;;;;;;;;;;;;;;;13.13;100.00;99022.28;5032361;28;19948;-79
2023/07/16 01:45:27;;;;;;;;;;;;;;;13.10;100.00;99016.56;5047111;28;20345;-80
2023/07/16 01:48:04;;;;;;;;;;;;;;;13.09;100.00;99023.88;5051720;28;19931;-79
2023/07/16 01:50:31;;;;;;;;;;;;;;;13.06;100.00;99023.56;5051158;28;20415;-80
2023/07/16 01:52:58;;;;;;;;;;;;;;;13.07;100.00;99031.47;5052126;28;20023;-80
2023/07/16 01:55:25;;;;;;;;;;;;;;;13.09;100.00;99033.88;5034168;28;20023;-80
2023/07/16 01:57:51;;;;;;;;;;;;;;;13.09;100.00;99034.72;5018045;28;19925;-80
2023/07/16 02:00:18;;;;;;;;;;;;;;;13.11;100.00;99031.75;5051837;28;20043;-79
2023/07/16 02:02:46;;;;;;;;;;;;;;;13.10;100.00;99035.53;5051618;28;19935;-81
2023/07/16 02:05:14;;;;;;;;;;;;;;;13.09;100.00;99031.19;5051745;28;19929;-81
2023/07/16 02:07:41;;;;;;;;;;;;;;;13.09;100.00;99025.75;5050204;28;19952;-80
2023/07/16 02:10:08;;;;;;;;;;;;;;;13.09;100.00;99029.31;5051554;28;20299;-80
2023/07/16 02:12:34;;;;;;;;;;;;;;;13.07;100.00;99039.59;5050243;28;20483;-80
2023/07/16 02:15:02;;;;;;;;;;;;;;;13.10;100.00;99030.13;5050484;28;20455;-79
2023/07/16 02:17:33;;;;;;;;;;;;;;;13.13;100.00;99033.13;5049950;28;19925;-80
2023/07/16 02:20:00;;;;;;;;;;;;;;;13.17;100.00;99026.09;5051739;28;19924;-80
2023/07/16 02:22:27;;;;;;;;;;;;;;;13.24;100.00;99028.56;5051397;28;19932;-79
2023/07/16 02:24:56;;;;;;;;;;;;;;;13.29;100.00;99042.19;5051519;28;19928;-80
2023/07/16 02:27:23;;;;;;;;;;;;;;;13.35;100.00;99041.16;5050322;28;19925;-80
2023/07/16 02:29:49;;;;;;;;;;;;;;;13.40;100.00;99043.09;5049767;28;19924;-80
2023/07/16 02:32:16;;;;;;;;;;;;;;;13.44;100.00;99036.88;5051433;28;19936;-80
2023/07/16 02:34:43;;;;;;;;;;;;;;;13.50;100.00;99045.03;5050245;28;20373;-81
2023/07/16 02:37:10;;;;;;;;;;;;;;;13.57;100.00;99038.31;5051475;28;20350;-80
2023/07/16 02:39:37;;;;;;;;;;;;;;;13.66;100.00;99042.13;5050965;28;19929;-81
2023/07/16 02:42:04;;;;;;;;;;;;;;;13.76;100.00;99035.94;5050844;28;19932;-80
2023/07/16 02:44:31;;;;;;;;;;;;;;;13.83;100.00;99043.84;5050988;28;19931;-80
2023/07/16 02:46:58;;;;;;;;;;;;;;;13.90;100.00;99040.88;5051131;28;19930;-79
2023/07/16 02:49:26;;;;;;;;;;;;;;;13.98;100.00;99043.09;5049867;28;19925;-80
2023/07/16 02:51:54;;;;;;;;;;;;;;;14.07;100.00;99041.47;5049630;28;19932;-81
2023/07/16 02:54:21;;;;;;;;;;;;;;;14.16;100.00;99045.31;5051270;28;19931;-81
2023/07/16 02:56:48;;;;;;;;;;;;;;;14.22;100.00;99049.66;5050810;28;19924;-81
2023/07/16 02:59:15;;;;;;;;;;;;;;;14.21;100.00;99053.47;5050984;28;19946;-81
2023/07/16 03:01:41;;;;;;;;;;;;;;;14.23;100.00;99059.47;5049403;28;19954;-79
2023/07/16 03:04:08;;;;;;;;;;;;;;;14.26;100.00;99061.63;5049785;28;19924;-81
2023/07/16 03:06:35;;;;;;;;;;;;;;;14.25;100.00;99061.91;5050128;28;20310;-80
2023/07/16 03:09:02;;;;;;;;;;;;;;;14.26;100.00;99064.34;5049606;28;20315;-81
2023/07/16 03:11:29;;;;;;;;;;;;;;;14.33;100.00;99055.97;5049006;28;19932;-80
2023/07/16 03:13:56;;;;;;;;;;;;;;;14.39;100.00;99064.94;5052598;28;19924;-80
2023/07/16 03:16:23;;;;;;;;;;;;;;;14.39;100.00;99059.50;5050231;28;19931;-80
2023/07/16 03:18:51;;;;;;;;;;;;;;;14.48;100.00;99060.59;5049213;28;19925;-81
2023/07/16 03:21:18;;;;;;;;;;;;;;;14.58;100.00;99066.06;5050741;28;19939;-80
2023/07/16 03:23:45;;;;;;;;;;;;;;;14.68;100.00;99068.00;5049192;28;19925;-81
2023/07/16 03:26:12;;;;;;;;;;;;;;;14.72;100.00;99072.63;5033076;28;19924;-80
2023/07/16 03:28:39;;;;;;;;;;;;;;;14.79;100.00;99069.66;5050238;28;19925;-79
2023/07/16 03:31:08;;;;;;;;;;;;;;;14.84;100.00;99077.81;5033224;28;19926;-80
2023/07/16 03:33:37;;;;;;;;;;;;;;;14.89;100.00;99082.44;5049202;28;19929;-79
2023/07/16 03:36:05;;;;;;;;;;;;;;;14.97;100.00;99084.59;5049290;28;19932;-80
2023/07/16 03:38:32;;;;;;;;;;;;;;;14.97;100.00;99087.31;5050390;28;19928;-79
2023/07/16 03:40:58;;;;;;;;;;;;;;;14.89;99.68;99091.38;5050824;28;19925;-79
2023/07/16 03:43:28;;;;;;;;;;;;;;;14.91;99.71;99091.09;5033026;28;19939;-80
2023/07/16 03:46:03;;;;;;;;;;;;;;;15.03;99.70;99091.66;5049149;28;20018;-81
2023/07/16 03:48:31;;;;;;;;;;;;;;;15.13;99.46;99097.09;5049031;28;19931;-80
2023/07/16 03:50:58;;;;;;;;;;;;;;;15.23;99.19;99096.28;5032044;28;20070;-78
2023/07/16 03:53:27;;;;;;;;;;;;;;;15.29;98.59;99097.06;5049250;28;19928;-80
2023/07/16 03:55:53;;;;;;;;;;;;;;;15.40;98.99;99093.28;5050366;28;19931;-80
2023/07/16 03:58:20;;;;;;;;;;;;;;;15.50;98.55;99090.53;5048983;28;20359;-81
2023/07/16 04:00:47;;;;;;;;;;;;;;;15.48;97.32;99094.63;5049989;28;19929;-80
2023/07/16 04:03:14;;;;;;;;;;;;;;;15.34;96.49;99089.75;5048946;28;19951;-80
2023/07/16 04:05:41;;;;;;;;;;;;;;;15.33;96.50;99090.81;5050104;28;20009;-80
2023/07/16 04:08:08;;;;;;;;;;;;;;;15.33;96.33;99087.31;5048950;28;20135;-80
2023/07/16 04:10:36;;;;;;;;;;;;;;;15.28;96.24;99084.59;5048640;28;19932;-80
2023/07/16 04:13:03;;;;;;;;;;;;;;;15.30;96.27;99090.56;5050207;28;19959;-80
2023/07/16 04:15:29;;;;;;;;;;;;;;;15.29;96.06;99089.75;5049964;28;19978;-78
2023/07/16 04:17:57;;;;;;;;;;;;;;;15.31;95.80;99092.19;5050668;28;20023;-80
2023/07/16 04:20:24;;;;;;;;;;;;;;;15.29;95.92;99089.75;5053926;28;20027;-80
2023/07/16 04:22:51;;;;;;;;;;;;;;;15.35;95.97;99093.28;5053918;28;20295;-81
2023/07/16 04:25:18;;;;;;;;;;;;;;;15.43;96.01;99098.16;5053846;28;19928;-80
2023/07/16 04:27:45;;;;;;;;;;;;;;;15.52;95.55;99092.97;5053558;28;19925;-80
2023/07/16 04:30:12;;;;;;;;;;;;;;;15.66;95.27;99093.22;5053525;28;19925;-80
2023/07/16 04:32:39;;;;;;;;;;;;;;;15.75;94.71;99095.16;5053324;28;19929;-80
2023/07/16 04:35:06;;;;;;;;;;;;;;;15.89;94.58;99091.84;5053618;28;19924;-80
2023/07/16 04:37:33;;;;;;;;;;;;;;;15.95;93.92;99098.88;5053437;28;19932;-80
2023/07/16 04:39:59;;;;;;;;;;;;;;;15.95;93.13;99094.28;5052416;28;20023;-80
2023/07/16 04:42:26;;;;;;;;;;;;;;;15.92;92.74;99102.16;5052296;28;19931;-81
2023/07/16 04:44:53;;;;;;;;;;;;;;;16.00;92.50;99104.31;5051991;28;19931;-79
2023/07/16 04:47:20;;;;;;;;;;;;;;;16.04;91.80;99094.50;5053282;28;20002;-80
2023/07/16 04:49:46;;;;;;;;;;;;;;;16.01;91.47;99097.78;5053108;28;19967;-79
2023/07/16 04:52:13;;;;;;;;;;;;;;;16.14;91.54;99099.09;5053111;28;19947;-81
2023/07/16 04:54:40;;;;;;;;;;;;;;;16.32;91.42;99103.91;5052946;28;19932;-80
2023/07/16 04:57:07;;;;;;;;;;;;;;;16.51;90.28;99097.81;5053209;28;19940;-80
2023/07/16 04:59:34;;;;;;;;;;;;;;;16.63;89.95;99101.00;5052839;28;19932;-79
2023/07/16 05:02:04;;;;;;;;;;;;;;;16.76;89.45;99103.13;5053099;28;19925;-80
2023/07/16 05:04:31;;;;;;;;;;;;;;;16.87;89.19;99104.69;5051227;28;19971;-80
2023/07/16 05:06:58;;;;;;;;;;;;;;;16.98;88.54;99107.34;5052764;28;19955;-79
2023/07/16 05:09:25;;;;;;;;;;;;;;;16.89;87.54;99101.72;5052874;28;19925;-80
2023/07/16 05:11:52;;;;;;;;;;;;;;;16.93;86.83;99102.75;5051280;28;20329;-80
2023/07/16 05:14:19;;;;;;;;;;;;;;;16.94;86.46;99101.66;5052967;28;19982;-79
2023/07/16 05:16:45;;;;;;;;;;;;;;;16.95;86.20;99114.19;5051209;28;19932;-80
2023/07/16 05:19:12;;;;;;;;;;;;;;;16.94;85.74;99114.47;5052807;28;19925;-80
2023/07/16 05:21:39;;;;;;;;;;;;;;;17.16;85.94;99116.75;5052416;28;19963;-81
2023/07/16 05:24:06;;;;;;;;;;;;;;;17.10;84.69;99111.34;5052537;28;19931;-80
2023/07/16 05:26:33;;;;;;;;;;;;;;;17.04;84.88;99120.69;5032407;28;19925;-81
2023/07/16 05:28:59;;;;;;;;;;;;;;;17.14;85.02;99124.41;5038493;28;19929;-80
2023/07/16 05:31:26;;;;;;;;;;;;;;;17.16;84.86;99133.13;5052267;28;19935;-82
2023/07/16 05:33:53;;;;;;;;;;;;;;;17.25;84.59;99124.03;5052458;28;20383;-80
2023/07/16 05:36:20;;;;;;;;;;;;;;;17.28;84.40;99118.00;5052543;28;19925;-80
2023/07/16 05:38:47;;;;;;;;;;;;;;;17.45;84.14;99117.59;5052190;28;20437;-81
2023/07/16 05:41:13;;;;;;;;;;;;;;;17.52;83.82;99117.25;5052071;28;19931;-80
2023/07/16 05:43:40;;;;;;;;;;;;;;;17.53;83.60;99118.88;5050803;28;19932;-81
2023/07/16 05:46:07;;;;;;;;;;;;;;;17.48;82.81;99122.47;5039381;28;19924;-80
2023/07/16 05:48:34;;;;;;;;;;;;;;;17.38;83.04;99121.75;5042356;28;19931;-81
2023/07/16 05:51:00;;;;;;;;;;;;;;;17.26;82.87;99125.66;5046460;28;19924;-82
2023/07/16 05:53:27;;;;;;;;;;;;;;;17.17;83.71;99126.59;5038078;28;19933;-82
2023/07/16 05:55:54;;;;;;;;;;;;;;;17.00;84.09;99122.31;5041950;28;19926;-82
2023/07/16 05:58:21;;;;;;;;;;;;;;;17.19;84.22;99125.19;5036272;28;20280;-81
2023/07/16 06:00:48;;;;;;;;;;;;;;;17.08;83.64;99126.34;5037752;28;19925;-83
2023/07/16 06:03:16;;;;;;;;;;;;;;;17.22;84.46;99126.53;5044415;28;19924;-81
2023/07/16 06:05:43;;;;;;;;;;;;;;;17.35;84.01;99125.06;5050263;28;19928;-81
2023/07/16 06:08:11;;;;;;;;;;;;;;;17.38;82.96;99133.47;5051842;28;20497;-82
2023/07/16 06:10:38;;;;;;;;;;;;;;;17.22;83.69;99134.72;5042289;28;19928;-83
2023/07/16 06:13:05;;;;;;;;;;;;;;;17.13;83.99;99122.78;5040693;28;19932;-81
2023/07/16 06:15:32;;;;;;;;;;;;;;;17.09;84.53;99130.69;5036959;28;19931;-81
2023/07/16 06:17:59;;;;;;;;;;;;;;;17.08;84.78;99124.44;5033756;28;19929;-87
2023/07/16 06:20:28;;;;;;;;;;;;;;;17.03;84.69;99119.03;5037588;28;19931;-82
2023/07/16 06:22:55;;;;;;;;;;;;;;;17.14;85.19;99130.66;5041904;28;19925;-83
2023/07/16 06:25:22;;;;;;;;;;;;;;;17.31;84.86;99125.63;5035932;28;19967;-84
2023/07/16 06:27:49;;;;;;;;;;;;;;;17.32;84.20;99127.25;5050449;28;19983;-82
2023/07/16 06:30:16;;;;;;;;;;;;;;;17.30;84.47;99126.72;5039204;28;19978;-85
2023/07/16 06:32:43;;;;;;;;;;;;;;;17.48;84.24;99124.41;5042908;28;19925;-81
2023/07/16 06:35:10;;;;;;;;;;;;;;;17.67;83.65;99130.78;5030326;28;19947;-84
2023/07/16 06:37:36;;;;;;;;;;;;;;;17.70;83.49;99130.19;5031476;28;20441;-83
2023/07/16 06:40:03;;;;;;;;;;;;;;;17.87;82.89;99139.88;5031596;28;19947;-85
2023/07/16 06:42:30;;;;;;;;;;;;;;;18.29;82.15;99135.56;5037164;28;19925;-85
2023/07/16 06:44:57;;;;;;;;;;;;;;;18.59;80.58;99140.63;5037077;28;20027;-84
2023/07/16 06:47:24;;;;;;;;;;;;;;;18.67;78.89;99136.44;5021642;28;19924;-83
2023/07/16 06:49:51;;;;;;;;;;;;;;;18.43;78.48;99136.47;5042459;28;20015;-81
2023/07/16 06:52:21;;;;;;;;;;;;;;;18.56;78.88;99134.94;5044305;28;19932;-82
2023/07/16 06:54:48;;;;;;;;;;;;;;;18.82;77.91;99135.44;5030902;28;19925;-81
2023/07/16 06:57:16;;;;;;;;;;;;;;;18.97;76.43;99123.47;5030025;28;19998;-82
2023/07/16 06:59:43;;;;;;;;;;;;;;;18.90;75.94;99129.28;5039931;28;19931;-82
2023/07/16 07:02:09;;;;;;;;;;;;;;;18.82;76.32;99133.50;5035231;28;19925;-82
2023/07/16 07:04:36;;;;;;;;;;;;;;;18.82;76.44;99129.97;5038082;28;19931;-83
2023/07/16 07:07:03;;;;;;;;;;;;;;;19.16;75.54;99128.91;5039394;28;20419;-81
2023/07/16 07:09:30;;;;;;;;;;;;;;;19.28;74.96;99127.31;5040626;28;19979;-84
2023/07/16 07:11:58;;;;;;;;;;;;;;;19.62;74.15;99131.69;5031237;28;19925;-84
2023/07/16 07:14:24;;;;;;;;;;;;;;;20.12;71.91;99123.63;5019210;28;19939;-84
2023/07/16 07:16:51;;;;;;;;;;;;;;;20.35;71.42;99130.00;5042938;28;19925;-81
2023/07/16 07:19:18;;;;;;;;;;;;;;;20.18;70.00;99135.31;5032676;28;19932;-81
2023/07/16 07:21:45;;;;;;;;;;;;;;;20.24;70.24;99125.88;5046551;28;19971;-81
2023/07/16 07:24:12;;;;;;;;;;;;;;;20.12;70.74;99122.81;5050579;28;19924;-79
2023/07/16 07:26:39;;;;;;;;;;;;;;;20.12;69.27;99122.81;5032680;28;19929;-84
2023/07/16 07:29:05;;;;;;;;;;;;;;;19.95;70.76;99122.63;5042287;28;19925;-83
2023/07/16 07:31:32;;;;;;;;;;;;;;;20.44;70.10;99126.56;5033110;28;19948;-83
2023/07/16 07:33:59;;;;;;;;;;;;;;;20.55;68.45;99114.28;5038291;28;19929;-81
2023/07/16 07:36:26;;;;;;;;;;;;;;;20.35;68.25;99120.97;5039188;28;19978;-85
2023/07/16 07:38:52;;;;;;;;;;;;;;;20.18;69.10;99120.78;5050360;28;19924;-84
2023/07/16 07:41:19;;;;;;;;;;;;;;;20.69;69.04;99111.53;5040444;28;19931;-83
2023/07/16 07:43:46;;;;;;;;;;;;;;;21.17;67.11;99124.66;5041896;28;19931;-84
2023/07/16 07:46:13;;;;;;;;;;;;;;;21.61;66.33;99118.34;5041479;28;19924;-84
2023/07/16 07:48:40;;;;;;;;;;;;;;;22.23;65.08;99114.75;5034155;28;20060;-83
2023/07/16 07:51:06;;;;;;;;;;;;;;;22.45;63.08;99121.28;5042165;28;20449;-82
2023/07/16 07:53:33;;;;;;;;;;;;;;;22.25;60.75;99123.47;5032300;28;20398;-83
2023/07/16 07:56:01;;;;;;;;;;;;;;;22.12;62.26;99118.09;5049317;28;20395;-82
2023/07/16 07:58:27;;;;;;;;;;;;;;;22.31;61.86;99115.91;5061411;28;20383;-83
2023/07/16 08:00:54;;;;;;;;;;;;;;;22.27;61.79;99123.16;5047054;28;19925;-84
2023/07/16 08:03:26;;;;;;;;;;;;;;;22.12;61.65;99124.38;5036916;28;19924;-84
2023/07/16 08:05:56;;;;;;;;;;;;;;;22.24;62.06;99126.56;5042544;28;19925;-83
2023/07/16 08:08:23;;;;;;;;;;;;;;;22.51;61.55;99122.75;5034418;28;19932;-83
2023/07/16 08:10:50;;;;;;;;;;;;;;;22.93;60.44;99118.41;5033587;28;19925;-83
2023/07/16 08:13:16;;;;;;;;;;;;;;;23.36;58.63;99120.34;5035094;28;19979;-83
2023/07/16 08:15:43;;;;;;;;;;;;;;;23.37;58.68;99118.41;5034092;28;19929;-82
2023/07/16 08:18:10;;;;;;;;;;;;;;;23.41;58.75;99104.78;5048351;28;19950;-83
2023/07/16 08:20:37;;;;;;;;;;;;;;;23.62;57.59;99113.16;5056043;28;19956;-83
2023/07/16 08:23:28;;;;;;;;;;;;;;;23.38;57.79;99117.28;5051846;28;20307;-83
2023/07/16 08:25:56;;;;;;;;;;;;;;;23.74;57.68;99116.88;5042237;28;19932;-84
2023/07/16 08:28:24;;;;;;;;;;;;;;;23.86;56.61;99110.69;5050192;28;19925;-83
2023/07/16 08:30:51;;;;;;;;;;;;;;;23.36;56.64;99117.59;5054774;28;20020;-84
2023/07/16 08:33:17;;;;;;;;;;;;;;;23.56;56.53;99110.56;5045823;28;19971;-84
2023/07/16 08:35:44;;;;;;;;;;;;;;;23.92;55.78;99105.78;5036970;28;19931;-83
2023/07/16 08:38:11;;;;;;;;;;;;;;;23.73;54.51;99107.00;5031706;28;19932;-83
2023/07/16 08:40:39;;;;;;;;;;;;;;;23.48;54.93;99111.41;5033757;28;19925;-85
2023/07/16 08:43:07;;;;;;;;;;;;;;;23.42;55.16;99109.16;5044517;28;19994;-82
2023/07/16 08:45:36;;;;;;;;;;;;;;;23.21;53.89;99107.09;5032645;28;19933;-83
2023/07/16 08:48:02;;;;;;;;;;;;;;;23.79;53.95;99105.66;5031872;28;19929;-81
2023/07/16 08:50:29;;;;;;;;;;;;;;;24.43;53.03;99099.22;5031817;28;19924;-81
2023/07/16 08:52:58;;;;;;;;;;;;;;;24.01;52.12;99090.03;5039573;28;20014;-82
2023/07/16 08:55:25;;;;;;;;;;;;;;;24.18;52.93;99100.97;5031504;28;19931;-81
2023/07/16 08:57:51;;;;;;;;;;;;;;;24.91;51.75;99094.31;5047064;28;19931;-80
2023/07/16 09:00:18;;;;;;;;;;;;;;;24.90;50.47;99091.91;5051060;28;19931;-82
2023/07/16 09:02:45;;;;;;;;;;;;;;;24.76;50.69;99086.66;5044749;28;19925;-81
2023/07/16 09:05:14;;;;;;;;;;;;;;;24.52;50.17;99084.56;5041302;28;19931;-80
2023/07/16 09:08:01;;;;;;;;;;;;;;;25.39;49.73;99081.06;5032570;28;19931;-81
2023/07/16 09:10:28;;;;;;;;;;;;;;;26.37;47.83;99086.69;5034512;28;19931;-80
2023/07/16 09:12:57;;;;;;;;;;;;;;;27.29;45.05;99087.03;5037012;28;19929;-81
2023/07/16 09:15:27;;;;;;;;;;;;;;;26.49;46.48;99094.97;5041604;28;19979;-83
2023/07/16 09:17:54;;;;;;;;;;;;;;;25.86;48.54;99098.13;5045604;28;19925;-80
2023/07/16 09:20:25;;;;;;;;;;;;;;;24.67;48.78;99095.00;5048684;28;20394;-82
2023/07/16 09:22:57;;;;;;;;;;;;;;;23.93;50.27;99101.91;5049372;28;19929;-81
2023/07/16 09:25:31;;;;;;;;;;;;;;;23.66;51.64;99098.41;5040643;28;19925;-82
2023/07/16 09:27:58;;;;;;;;;;;;;;;23.66;51.79;99108.63;5031566;28;19929;-81
2023/07/16 09:30:25;;;;;;;;;;;;;;;23.44;52.23;99099.44;5047641;28;19924;-83
2023/07/16 09:32:52;;;;;;;;;;;;;;;24.37;51.36;99105.25;5041561;28;19936;-81
2023/07/16 09:35:19;;;;;;;;;;;;;;;25.22;48.46;99104.13;5040230;28;20028;-82
2023/07/16 09:37:46;;;;;;;;;;;;;;;25.78;46.45;99104.53;5031343;28;19959;-82
2023/07/16 09:40:12;;;;;;;;;;;;;;;25.59;46.37;99102.28;5042316;28;20015;-83
2023/07/16 09:42:40;;;;;;;;;;;;;;;25.93;45.58;99094.78;5031269;28;19936;-82
2023/07/16 09:45:08;;;;;;;;;;;;;;;26.49;44.27;99103.28;5031769;28;20405;-83
2023/07/16 09:47:35;;;;;;;;;;;;;;;26.73;43.90;99096.09;5042483;28;19951;-82
2023/07/16 09:50:05;;;;;;;;;;;;;;;27.47;42.44;99101.38;5036197;28;20016;-83
2023/07/16 09:52:32;;;;;;;;;;;;;;;27.92;41.67;99112.09;5038163;28;19935;-82
2023/07/16 09:55:00;;;;;;;;;;;;;;;28.19;40.59;99104.81;5040309;28;19925;-83
2023/07/16 09:57:28;;;;;;;;;;;;;;;27.97;40.42;99109.03;5043931;28;19925;-83
2023/07/16 09:59:56;;;;;;;;;;;;;;;27.93;41.07;99101.78;5033124;28;19928;-82
2023/07/16 10:02:23;;;;;;;;;;;;;;;27.91;40.52;99096.63;5030275;28;19959;-82
2023/07/16 10:04:52;;;;;;;;;;;;;;;28.58;40.56;99085.50;5036177;28;20182;-84
2023/07/16 10:07:23;;;;;;;;;;;;;;;28.89;38.05;99092.94;5031910;28;19935;-84
2023/07/16 10:09:55;;;;;;;;;;;;;;;28.24;38.49;99096.22;5030911;28;19935;-82
2023/07/16 10:12:25;;;;;;;;;;;;;;;27.49;38.94;99083.22;5044876;28;19925;-82
2023/07/16 10:14:53;;;;;;;;;;;;;;;27.71;39.66;99095.69;5053917;28;20379;-83
2023/07/16 10:17:21;;;;;;;;;;;;;;;28.34;39.19;99092.09;5027028;28;19929;-84
2023/07/16 10:20:01;;;;;;;;;;;;;;;28.83;38.34;99088.03;5031436;28;19924;-82
2023/07/16 10:22:46;;;;;;;;;;;;;;;29.20;37.49;99088.41;5046176;28;19971;-82
2023/07/16 10:25:16;;;;;;;;;;;;;;;29.03;38.11;99086.06;5041680;28;19971;-84
2023/07/16 10:27:44;;;;;;;;;;;;;;;29.32;37.73;99098.56;5032672;28;19971;-84
2023/07/16 10:30:11;;;;;;;;;;;;;;;29.84;37.09;99099.13;5040882;28;19929;-83
2023/07/16 10:32:38;;;;;;;;;;;;;;;30.24;36.10;99090.28;5045902;28;19933;-83
2023/07/16 10:35:05;;;;;;;;;;;;;;;31.02;35.26;99087.78;5038394;28;19979;-83
2023/07/16 10:37:35;;;;;;;;;;;;;;;31.36;34.13;99084.97;5030578;28;19925;-88
2023/07/16 10:40:06;;;;;;;;;;;;;;;31.66;34.58;99092.47;5036704;28;19925;-85
2023/07/16 10:42:32;;;;;;;;;;;;;;;31.68;34.04;99098.47;5039254;28;20020;-85
2023/07/16 10:45:00;;;;;;;;;;;;;;;31.97;32.96;99082.00;5041956;28;19925;-82
2023/07/16 10:47:40;;;;;;;;;;;;;;;29.20;34.94;99093.19;5039877;28;20232;-83
2023/07/16 10:50:09;;;;;;;;;;;;;;;27.82;37.56;99105.09;5032723;28;19925;-83
2023/07/16 10:52:37;;;;;;;;;;;;;;;28.81;35.98;99096.72;5030524;28;20027;-84
2023/07/16 10:55:06;;;;;;;;;;;;;;;29.95;34.71;99088.97;5017378;28;19924;-82
2023/07/16 10:57:33;;;;;;;;;;;;;;;30.91;33.53;99089.63;5045701;28;19931;-84
2023/07/16 11:00:00;;;;;;;;;;;;;;;31.91;33.32;99096.28;5041985;28;19929;-83
2023/07/16 11:02:28;;;;;;;;;;;;;;;31.42;33.31;99094.59;5031428;28;19924;-82
2023/07/16 11:04:57;;;;;;;;;;;;;;;29.50;35.47;99096.09;5038766;28;19970;-83
2023/07/16 11:07:24;;;;;;;;;;;;;;;28.48;37.40;99100.75;5030913;28;19971;-82
2023/07/16 11:09:51;;;;;;;;;;;;;;;27.58;38.27;99102.47;5032720;28;19931;-82
2023/07/16 11:12:19;;;;;;;;;;;;;;;28.94;37.26;99092.66;5048105;28;19925;-83
2023/07/16 11:14:47;;;;;;;;;;;;;;;28.72;37.11;99083.06;5035298;28;19929;-83
2023/07/16 11:17:14;;;;;;;;;;;;;;;29.41;36.53;99076.09;5040804;28;19925;-81
2023/07/16 11:19:42;;;;;;;;;;;;;;;30.76;34.53;99079.44;5042309;28;19929;-82
2023/07/16 11:22:12;;;;;;;;;;;;;;;31.81;33.25;99085.03;5031334;28;19925;-81
2023/07/16 11:24:43;;;;;;;;;;;;;;;32.37;32.02;99081.88;5037057;28;20346;-81
2023/07/16 11:27:15;;;;;;;;;;;;;;;32.58;31.70;99080.44;5028710;28;19964;-81
2023/07/16 11:29:44;;;;;;;;;;;;;;;32.96;31.01;99075.41;5033769;28;19928;-80
2023/07/16 11:32:12;;;;;;;;;;;;;;;32.98;30.36;99089.81;5035251;28;19932;-81
2023/07/16 11:34:51;;;;;;;;;;;;;;;33.00;29.62;99079.03;5033370;28;20024;-80
2023/07/16 11:37:18;;;;;;;;;;;;;;;31.88;30.23;99080.31;5033825;28;19933;-80
2023/07/16 11:39:44;;;;;;;;;;;;;;;32.15;30.13;99082.94;5046921;28;19931;-80
2023/07/16 11:42:11;;;;;;;;;;;;;;;32.75;30.05;99090.91;5041206;28;19932;-80
2023/07/16 11:44:38;;;;;;;;;;;;;;;32.97;29.93;99091.00;5034027;28;19924;-82
2023/07/16 11:47:04;;;;;;;;;;;;;;;33.25;29.44;99090.34;5032740;28;20370;-81
2023/07/16 11:49:31;;;;;;;;;;;;;;;34.20;28.64;99082.44;5033192;28;19924;-81
2023/07/16 11:51:59;;;;;;;;;;;;;;;34.17;27.94;99088.06;5035314;28;19932;-81
2023/07/16 11:54:26;;;;;;;;;;;;;;;33.46;29.33;99083.97;5042163;28;20018;-84
2023/07/16 11:56:53;;;;;;;;;;;;;;;32.70;29.07;99082.91;5044009;28;19949;-81
2023/07/16 11:59:20;;;;;;;;;;;;;;;33.37;28.68;99094.72;5033630;28;19931;-79
2023/07/16 12:01:48;;;;;;;;;;;;;;;32.60;28.74;99086.44;5033472;28;19924;-81
2023/07/16 12:04:16;;;;;;;;;;;;;;;30.95;31.13;99090.47;5049710;28;19924;-79
2023/07/16 12:06:43;;;;;;;;;;;;;;;32.04;29.90;99084.84;5050791;28;19937;-80
2023/07/16 12:09:10;;;;;;;;;;;;;;;33.24;28.84;99077.53;5049427;28;19924;-81
2023/07/16 12:11:37;;;;;;;;;;;;;;;33.86;28.35;99079.25;5041734;28;19925;-82
2023/07/16 12:14:05;;;;;;;;;;;;;;;34.73;27.97;99075.16;5031912;28;20311;-80
2023/07/16 12:16:32;;;;;;;;;;;;;;;35.24;26.36;99070.13;5035078;28;19936;-82
2023/07/16 12:19:02;;;;;;;;;;;;;;;34.93;26.72;99067.84;5039075;28;19929;-80
2023/07/16 12:21:29;;;;;;;;;;;;;;;34.60;25.60;99060.78;5041164;28;20418;-79
2023/07/16 12:23:56;;;;;;;;;;;;;;;34.17;26.27;99051.66;5034446;28;19964;-81
2023/07/16 12:26:22;;;;;;;;;;;;;;;34.70;26.71;99051.53;5041183;28;19932;-80
2023/07/16 12:28:49;;;;;;;;;;;;;;;35.73;25.99;99051.38;5045857;28;19932;-81
2023/07/16 12:31:17;;;;;;;;;;;;;;;35.89;25.56;99051.66;5031600;28;19995;-80
2023/07/16 12:33:44;;;;;;;;;;;;;;;35.43;25.49;99064.00;5036606;28;19924;-83
2023/07/16 12:36:11;;;;;;;;;;;;;;;34.64;26.18;99052.34;5038826;28;20031;-81
2023/07/16 12:38:37;;;;;;;;;;;;;;;35.53;26.03;99054.72;5051195;28;19928;-83
2023/07/16 12:41:05;;;;;;;;;;;;;;;35.71;24.15;99057.41;5040471;28;19928;-82
2023/07/16 12:43:33;;;;;;;;;;;;;;;34.28;25.24;99052.44;5036323;28;19928;-82
2023/07/16 12:46:03;;;;;;;;;;;;;;;34.13;25.46;99059.25;5040803;28;20346;-82